Time;durP1;ratioP1;P1;durP2;ratioP2;P2;SDS_P1;SDS_P2;PMS_P1;PMS_P2;Temp;Humidity;BMP_temperature;BMP_pressure;BME280_temperature;BME280_humidity;BME280_pressure;Samples;Min_cycle;Max_cycle;Signal;HPM_P1;HPM_P2
2021/12/09 00:00:08;;;;;;;18.27;9.18;;;-7.00;92.90;;;;;;5004678;28;20475;-81
2021/12/09 00:02:34;;;;;;;15.55;7.65;;;-7.00;93.00;;;;;;5036118;28;20463;-80
2021/12/09 00:05:00;;;;;;;16.55;7.88;;;-7.00;93.30;;;;;;5035191;28;20033;-80
2021/12/09 00:07:26;;;;;;;14.73;7.60;;;-6.90;93.20;;;;;;5036634;28;20064;-81
2021/12/09 00:09:52;;;;;;;13.32;8.90;;;-6.90;93.10;;;;;;5036334;28;20032;-83
2021/12/09 00:12:18;;;;;;;13.90;7.68;;;-6.80;93.20;;;;;;5018835;28;20462;-81
2021/12/09 00:14:44;;;;;;;10.98;6.95;;;-6.80;93.10;;;;;;5035827;28;20060;-82
2021/12/09 00:17:10;;;;;;;12.02;7.53;;;-6.80;93.20;;;;;;5023084;28;20022;-80
2021/12/09 00:19:38;;;;;;;12.25;8.05;;;-6.80;93.30;;;;;;5044098;28;20029;-82
2021/12/09 00:22:05;;;;;;;13.40;7.70;;;-6.80;93.30;;;;;;5042869;28;20071;-81
2021/12/09 00:24:31;;;;;;;14.63;8.43;;;-6.70;93.20;;;;;;5036323;28;20367;-80
2021/12/09 00:26:57;;;;;;;15.23;7.25;;;-6.70;93.10;;;;;;5035857;28;20485;-78
2021/12/09 00:29:23;;;;;;;12.50;6.88;;;-6.70;93.00;;;;;;5035691;28;20017;-78
2021/12/09 00:31:49;;;;;;;12.50;7.45;;;-6.70;93.00;;;;;;5035297;28;20018;-79
2021/12/09 00:34:18;;;;;;;10.95;6.28;;;-6.70;93.10;;;;;;5035624;28;20079;-78
2021/12/09 00:36:56;;;;;;;11.40;7.80;;;-6.70;93.10;;;;;;5035614;28;20087;-78
2021/12/09 00:39:23;;;;;;;13.45;7.80;;;-6.70;92.70;;;;;;5035912;28;20083;-77
2021/12/09 00:41:49;;;;;;;11.68;7.38;;;-6.70;92.90;;;;;;5035319;28;20025;-77
2021/12/09 00:44:15;;;;;;;13.75;7.47;;;-6.70;93.10;;;;;;5034989;28;20072;-78
2021/12/09 00:46:41;;;;;;;12.48;7.18;;;-6.70;93.10;;;;;;5035131;28;20386;-77
2021/12/09 00:49:07;;;;;;;11.55;7.30;;;-6.70;93.00;;;;;;5033096;28;20040;-77
2021/12/09 00:51:34;;;;;;;13.35;7.18;;;-6.70;93.10;;;;;;5022274;28;20551;-77
2021/12/09 00:54:00;;;;;;;9.63;6.35;;;-6.70;93.30;;;;;;5023045;28;20513;-77
2021/12/09 00:56:25;;;;;;;12.25;7.15;;;-6.60;93.10;;;;;;5040591;28;20017;-77
2021/12/09 00:58:51;;;;;;;15.13;7.70;;;-6.60;93.00;;;;;;5050217;28;20037;-77
2021/12/09 01:01:18;;;;;;;13.10;7.18;;;-6.70;92.90;;;;;;5035619;28;20497;-76
2021/12/09 01:03:45;;;;;;;12.80;6.63;;;-6.70;93.00;;;;;;5035069;28;20041;-77
2021/12/09 01:06:11;;;;;;;15.05;8.45;;;-6.70;93.10;;;;;;5034665;28;20376;-78
2021/12/09 01:08:38;;;;;;;12.15;7.28;;;-6.70;93.20;;;;;;5035017;28;20025;-79
2021/12/09 01:11:05;;;;;;;10.33;6.70;;;-6.60;93.30;;;;;;5033988;28;20072;-78
2021/12/09 01:13:31;;;;;;;11.90;6.35;;;-6.50;93.30;;;;;;5035105;28;20029;-79
2021/12/09 01:15:57;;;;;;;9.30;5.97;;;-6.50;93.40;;;;;;5034613;28;20041;-78
2021/12/09 01:18:23;;;;;;;12.80;7.15;;;-6.50;93.40;;;;;;5034619;28;20047;-79
2021/12/09 01:20:50;;;;;;;13.70;8.02;;;-6.50;93.40;;;;;;5034387;28;20097;-78
2021/12/09 01:23:15;;;;;;;13.38;7.65;;;-6.50;93.40;;;;;;5016593;28;20030;-79
2021/12/09 01:25:43;;;;;;;14.00;8.18;;;-6.50;93.40;;;;;;5034849;28;20021;-78
2021/12/09 01:28:18;;;;;;;15.95;8.40;;;-6.50;93.30;;;;;;5035210;28;20410;-79
2021/12/09 01:30:46;;;;;;;14.02;7.00;;;-6.50;93.20;;;;;;5033830;28;20029;-78
2021/12/09 01:33:12;;;;;;;11.73;7.15;;;-6.50;93.10;;;;;;5034070;28;20047;-79
2021/12/09 01:35:40;;;;;;;9.88;7.13;;;-6.60;93.00;;;;;;5034643;28;20108;-79
2021/12/09 01:38:12;;;;;;;15.57;8.90;;;-6.50;93.10;;;;;;5034216;28;20463;-79
2021/12/09 01:40:38;;;;;;;12.98;8.25;;;-6.50;93.10;;;;;;5034234;28;20582;-78
2021/12/09 01:43:04;;;;;;;14.35;7.63;;;-6.50;93.20;;;;;;5033954;28;20029;-79
2021/12/09 01:45:30;;;;;;;10.85;5.30;;;-6.50;93.10;;;;;;5033709;28;20025;-79
2021/12/09 01:47:56;;;;;;;12.02;5.97;;;-6.50;92.90;;;;;;5034025;28;20471;-79
2021/12/09 01:50:23;;;;;;;10.93;6.93;;;-6.50;92.90;;;;;;5016509;28;20099;-79
2021/12/09 01:52:50;;;;;;;14.80;8.18;;;-6.50;93.00;;;;;;5034035;28;20033;-79
2021/12/09 01:55:17;;;;;;;14.38;8.43;;;-6.50;92.70;;;;;;5020461;28;20022;-79
2021/12/09 01:57:47;;;;;;;11.45;6.85;;;-6.50;92.50;;;;;;5034230;28;20464;-78
2021/12/09 02:00:15;;;;;;;14.07;7.82;;;-6.50;92.50;;;;;;5020393;28;20032;-78
2021/12/09 02:02:42;;;;;;;12.32;7.13;;;-6.50;92.40;;;;;;5033662;28;20112;-79
2021/12/09 02:05:10;;;;;;;8.83;6.03;;;-6.60;92.00;;;;;;5033694;28;20025;-78
2021/12/09 02:07:46;;;;;;;10.68;6.25;;;-6.60;92.20;;;;;;5033849;28;20029;-79
2021/12/09 02:10:16;;;;;;;12.75;7.30;;;-6.60;92.50;;;;;;5033591;28;20025;-79
2021/12/09 02:12:42;;;;;;;13.82;6.45;;;-6.60;92.70;;;;;;5015913;28;20021;-78
2021/12/09 02:15:09;;;;;;;16.00;7.38;;;-6.60;92.80;;;;;;5033576;28;20041;-78
2021/12/09 02:17:35;;;;;;;15.10;7.57;;;-6.60;92.70;;;;;;5033655;28;20109;-79
2021/12/09 02:20:04;;;;;;;14.90;9.23;;;-6.60;92.50;;;;;;5033720;28;20030;-79
2021/12/09 02:22:31;;;;;;;14.07;7.93;;;-6.60;92.50;;;;;;5015377;28;20326;-79
2021/12/09 02:24:57;;;;;;;12.20;7.15;;;-6.60;92.40;;;;;;5033470;28;20033;-79
2021/12/09 02:27:24;;;;;;;13.18;7.05;;;-6.60;92.30;;;;;;5033653;28;20025;-78
2021/12/09 02:29:52;;;;;;;13.18;7.10;;;-6.70;92.50;;;;;;5033320;28;20024;-77
2021/12/09 02:32:18;;;;;;;16.38;7.65;;;-6.70;92.70;;;;;;5032987;28;20026;-78
2021/12/09 02:34:44;;;;;;;8.00;5.05;;;-6.60;92.90;;;;;;5033370;28;20386;-78
2021/12/09 02:37:16;;;;;;;8.80;5.82;;;-6.60;92.70;;;;;;5033488;28;20029;-79
2021/12/09 02:39:43;;;;;;;10.90;6.10;;;-6.60;92.60;;;;;;5034825;28;20037;-78
2021/12/09 02:42:09;;;;;;;11.75;6.05;;;-6.60;92.90;;;;;;5023592;28;20029;-78
2021/12/09 02:44:35;;;;;;;11.25;6.32;;;-6.60;92.60;;;;;;5034556;28;20039;-77
2021/12/09 02:47:02;;;;;;;13.13;7.43;;;-6.60;92.30;;;;;;5033865;28;20450;-77
2021/12/09 02:49:30;;;;;;;13.40;8.20;;;-6.60;92.20;;;;;;5034478;28;20057;-78
2021/12/09 02:51:58;;;;;;;12.38;8.45;;;-6.70;92.10;;;;;;5039787;28;20025;-79
2021/12/09 02:54:25;;;;;;;15.95;7.70;;;-6.70;92.00;;;;;;5036026;28;20469;-77
2021/12/09 02:56:54;;;;;;;;;;;-6.80;91.90;;;;;;5034037;28;20021;-78
2021/12/09 02:59:20;;;;;;;14.15;7.72;;;-6.80;91.90;;;;;;5015048;28;19905;-78
2021/12/09 03:01:58;;;;;;;14.05;7.82;;;-6.90;91.90;;;;;;5022586;28;20029;-77
2021/12/09 03:04:54;;;;;;;15.52;8.80;;;-6.90;92.20;;;;;;5030989;28;20025;-78
2021/12/09 03:07:23;;;;;;;16.70;5.75;;;-6.90;92.40;;;;;;5014838;28;20053;-77
2021/12/09 03:09:53;;;;;;;13.60;7.45;;;-6.80;92.50;;;;;;5032676;28;20022;-78
2021/12/09 03:12:25;;;;;;;11.00;7.55;;;-6.80;92.50;;;;;;5032454;28;20025;-78
2021/12/09 03:14:51;;;;;;;8.38;5.07;;;-6.80;92.30;;;;;;5032596;28;20375;-78
2021/12/09 03:17:18;;;;;;;13.35;6.60;;;-6.80;92.10;;;;;;5032977;28;20441;-77
2021/12/09 03:19:45;;;;;;;13.50;7.07;;;-6.90;92.30;;;;;;5032552;28;20100;-77
2021/12/09 03:22:12;;;;;;;15.93;7.95;;;-6.90;92.40;;;;;;5032611;28;20025;-76
2021/12/09 03:24:38;;;;;;;17.20;7.80;;;-6.90;92.50;;;;;;5032451;28;20065;-77
2021/12/09 03:27:04;;;;;;;15.45;7.40;;;-6.90;92.50;;;;;;5032803;28;20053;-77
2021/12/09 03:29:30;;;;;;;16.03;7.40;;;-6.90;92.50;;;;;;5032280;28;20068;-76
2021/12/09 03:31:59;;;;;;;15.27;7.80;;;-6.90;92.40;;;;;;5032478;28;20022;-77
2021/12/09 03:34:28;;;;;;;13.95;7.55;;;-6.90;92.50;;;;;;5018128;28;20029;-77
2021/12/09 03:36:56;;;;;;;17.25;8.18;;;-6.90;92.50;;;;;;5036421;28;20036;-77
2021/12/09 03:39:25;;;;;;;14.63;8.35;;;-6.80;92.60;;;;;;5036398;28;20021;-76
2021/12/09 03:41:54;;;;;;;15.68;7.70;;;-6.80;92.60;;;;;;5036338;28;20109;-77
2021/12/09 03:44:21;;;;;;;10.98;6.13;;;-6.80;92.60;;;;;;5035999;28;20106;-77
2021/12/09 03:46:48;;;;;;;16.75;8.13;;;-6.80;92.60;;;;;;5036241;28;20096;-78
2021/12/09 03:49:15;;;;;;;14.27;8.60;;;-6.80;92.60;;;;;;5036063;28;20087;-76
2021/12/09 03:51:41;;;;;;;14.38;9.60;;;-6.80;92.60;;;;;;5032026;28;20029;-78
2021/12/09 03:54:09;;;;;;;16.85;8.30;;;-6.80;92.90;;;;;;5031014;28;20026;-76
2021/12/09 03:56:36;;;;;;;18.75;10.52;;;-6.80;92.70;;;;;;5036410;28;20098;-77
2021/12/09 03:59:04;;;;;;;13.07;9.07;;;-6.70;92.40;;;;;;5036262;28;20021;-78
2021/12/09 04:01:30;;;;;;;14.82;10.00;;;-6.80;92.20;;;;;;5035943;28;20036;-76
2021/12/09 04:03:56;;;;;;;12.90;9.55;;;-6.80;92.20;;;;;;5036294;28;20042;-77
2021/12/09 04:06:22;;;;;;;24.23;9.50;;;-6.80;92.30;;;;;;5036072;28;20049;-76
2021/12/09 04:08:48;;;;;;;14.18;8.38;;;-6.90;92.30;;;;;;5035903;28;20513;-77
2021/12/09 04:11:16;;;;;;;10.98;7.38;;;-6.90;92.50;;;;;;5036161;28;20032;-77
2021/12/09 04:13:43;;;;;;;11.32;6.57;;;-6.90;92.70;;;;;;5035860;28;20048;-78
2021/12/09 04:16:09;;;;;;;;;;;-6.90;92.80;;;;;;5035803;28;20075;-77
2021/12/09 04:18:36;;;;;;;15.30;7.82;;;-6.90;92.90;;;;;;5036132;28;19905;-77
2021/12/09 04:21:03;;;;;;;12.68;8.32;;;-6.90;92.90;;;;;;5035508;28;20494;-78
2021/12/09 04:23:29;;;;;;;9.10;6.00;;;-6.90;92.90;;;;;;5035783;28;20042;-77
2021/12/09 04:25:56;;;;;;;16.33;10.00;;;-6.80;92.90;;;;;;5035492;28;20032;-77
2021/12/09 04:28:22;;;;;;;17.15;7.60;;;-6.80;92.80;;;;;;5035835;28;20026;-77
2021/12/09 04:30:48;;;;;;;11.15;7.15;;;-6.80;92.80;;;;;;5035592;28;20367;-77
2021/12/09 04:33:14;;;;;;;14.70;8.40;;;-6.80;92.50;;;;;;5018285;28;20533;-78
2021/12/09 04:35:40;;;;;;;14.18;8.25;;;-6.90;92.40;;;;;;5017711;28;20032;-77
2021/12/09 04:38:06;;;;;;;18.27;8.13;;;-6.90;92.60;;;;;;5035683;28;20501;-79
2021/12/09 04:40:32;;;;;;;10.68;6.15;;;-6.90;92.80;;;;;;5017787;28;20025;-78
2021/12/09 04:43:00;;;;;;;13.23;9.10;;;-6.90;92.90;;;;;;5035629;28;20483;-79
2021/12/09 04:45:26;;;;;;;14.68;6.88;;;-6.90;92.80;;;;;;5038218;28;20009;-79
2021/12/09 04:47:52;;;;;;;15.63;9.02;;;-6.80;93.00;;;;;;5054181;28;20022;-77
2021/12/09 04:50:18;;;;;;;13.50;8.70;;;-6.80;93.10;;;;;;5037466;28;20061;-77
2021/12/09 04:52:44;;;;;;;27.60;14.30;;;-6.70;93.00;;;;;;5036518;28;20105;-79
2021/12/09 04:55:11;;;;;;;16.55;8.15;;;-6.70;93.00;;;;;;5035665;28;20504;-80
2021/12/09 04:57:38;;;;;;;16.33;7.32;;;-6.70;93.20;;;;;;5036015;28;20105;-77
2021/12/09 05:00:08;;;;;;;13.82;6.75;;;-6.70;93.40;;;;;;5040586;28;20030;-78
2021/12/09 05:02:55;;;;;;;14.18;7.28;;;-6.60;93.40;;;;;;5043115;28;20079;-78
2021/12/09 05:05:20;;;;;;;13.63;6.38;;;-6.60;93.40;;;;;;5035690;28;20112;-79
2021/12/09 05:07:47;;;;;;;12.73;6.68;;;-6.50;93.20;;;;;;5018295;28;20555;-78
2021/12/09 05:10:13;;;;;;;;;;;-6.50;93.20;;;;;;5035178;28;20063;-78
2021/12/09 05:12:39;;;;;;;18.90;10.18;;;-6.60;93.10;;;;;;5035546;28;19912;-79
2021/12/09 05:15:05;;;;;;;13.32;8.05;;;-6.60;93.00;;;;;;5034658;28;20459;-78
2021/12/09 05:17:31;;;;;;;12.52;7.80;;;-6.70;92.90;;;;;;5035011;28;20030;-78
2021/12/09 05:19:57;;;;;;;17.90;7.50;;;-6.70;93.10;;;;;;5034923;28;20029;-77
2021/12/09 05:22:24;;;;;;;17.48;10.63;;;-6.70;93.00;;;;;;5034760;28;20050;-78
2021/12/09 05:24:52;;;;;;;13.65;7.47;;;-6.70;93.10;;;;;;5034661;28;20037;-79
2021/12/09 05:27:18;;;;;;;12.15;7.97;;;-6.70;93.20;;;;;;5034320;28;20025;-78
2021/12/09 05:29:46;;;;;;;15.68;7.40;;;-6.70;93.20;;;;;;5034516;28;20037;-77
2021/12/09 05:32:13;;;;;;;12.15;7.47;;;-6.70;92.90;;;;;;5034240;28;20064;-78
2021/12/09 05:34:50;;;;;;;12.85;8.70;;;-6.70;93.00;;;;;;5034245;28;20026;-78
2021/12/09 05:37:19;;;;;;;6.60;5.20;;;-6.70;93.10;;;;;;5034354;28;20087;-76
2021/12/09 05:39:46;;;;;;;12.48;6.25;;;-6.60;93.20;;;;;;5034729;28;20483;-78
2021/12/09 05:42:14;;;;;;;13.93;6.97;;;-6.60;93.40;;;;;;5034397;28;20379;-79
2021/12/09 05:44:40;;;;;;;15.98;8.18;;;-6.60;93.50;;;;;;5034590;28;20037;-78
2021/12/09 05:47:08;;;;;;;13.70;9.38;;;-6.50;93.50;;;;;;5034258;28;20024;-78
2021/12/09 05:49:37;;;;;;;17.10;8.25;;;-6.50;93.30;;;;;;5034488;28;20123;-77
2021/12/09 05:52:05;;;;;;;11.52;6.68;;;-6.50;93.10;;;;;;5034549;28;20096;-78
2021/12/09 05:54:31;;;;;;;17.60;10.48;;;-6.50;93.10;;;;;;5034144;28;20378;-76
2021/12/09 05:56:58;;;;;;;18.65;8.88;;;-6.50;93.10;;;;;;5033366;28;20021;-78
2021/12/09 05:59:24;;;;;;;11.82;7.40;;;-6.40;93.40;;;;;;5034154;28;20065;-78
2021/12/09 06:01:50;;;;;;;10.57;6.63;;;-6.40;93.60;;;;;;5034178;28;20377;-78
2021/12/09 06:04:16;;;;;;;12.02;9.15;;;-6.40;93.70;;;;;;5033880;28;20033;-78
2021/12/09 06:06:42;;;;;;;13.15;7.07;;;-6.30;93.60;;;;;;5034063;28;20386;-78
2021/12/09 06:09:10;;;;;;;12.25;7.93;;;-6.30;93.30;;;;;;5034518;28;20471;-79
2021/12/09 06:11:35;;;;;;;;;;;-6.30;92.60;;;;;;5033490;28;20022;-78
2021/12/09 06:14:02;;;;;;;12.85;6.55;;;-6.30;92.70;;;;;;5015906;28;19909;-79
2021/12/09 06:16:28;;;;;;;21.40;7.22;;;-6.30;92.90;;;;;;5016704;28;20380;-80
2021/12/09 06:18:54;;;;;;;13.05;7.38;;;-6.30;93.20;;;;;;5033736;28;20090;-79
2021/12/09 06:21:23;;;;;;;13.68;7.18;;;-6.30;93.20;;;;;;5035032;28;20027;-79
2021/12/09 06:23:50;;;;;;;12.77;6.88;;;-6.20;93.30;;;;;;5034616;28;20072;-79
2021/12/09 06:26:16;;;;;;;11.15;6.40;;;-6.20;93.40;;;;;;5035052;28;20086;-80
2021/12/09 06:28:41;;;;;;;10.20;7.38;;;-6.10;93.60;;;;;;5033765;28;20029;-79
2021/12/09 06:31:08;;;;;;;13.18;7.45;;;-6.10;93.50;;;;;;5033586;28;20101;-78
2021/12/09 06:33:34;;;;;;;12.85;7.20;;;-6.10;92.70;;;;;;5033923;28;20071;-78
2021/12/09 06:35:59;;;;;;;7.90;5.53;;;-6.10;92.60;;;;;;5033311;28;20442;-79
2021/12/09 06:38:25;;;;;;;14.40;8.05;;;-6.00;92.80;;;;;;5033499;28;20394;-78
2021/12/09 06:40:52;;;;;;;12.10;7.45;;;-6.00;92.70;;;;;;5042477;28;20020;-80
2021/12/09 06:43:18;;;;;;;12.57;6.57;;;-6.00;92.50;;;;;;5048922;28;20545;-77
2021/12/09 06:45:44;;;;;;;11.55;6.80;;;-6.00;92.10;;;;;;5033513;28;20025;-80
2021/12/09 06:48:11;;;;;;;10.13;6.23;;;-6.00;92.10;;;;;;5033159;28;20108;-80
2021/12/09 06:50:37;;;;;;;14.90;8.10;;;-6.10;91.90;;;;;;5033223;28;20052;-79
2021/12/09 06:53:04;;;;;;;13.27;7.40;;;-6.10;91.90;;;;;;5032957;28;20018;-78
2021/12/09 06:55:30;;;;;;;10.63;6.03;;;-6.10;92.10;;;;;;5030899;28;20025;-77
2021/12/09 06:57:55;;;;;;;12.57;6.75;;;-6.10;92.10;;;;;;5032705;28;20527;-76
2021/12/09 07:00:28;;;;;;;14.70;8.15;;;-6.10;92.00;;;;;;5032879;28;20048;-78
2021/12/09 07:02:56;;;;;;;14.25;7.65;;;-6.10;92.00;;;;;;5016668;28;20029;-76
2021/12/09 07:05:25;;;;;;;16.42;9.20;;;-6.10;92.40;;;;;;5032587;28;20060;-78
2021/12/09 07:07:51;;;;;;;10.27;6.85;;;-6.10;92.10;;;;;;5031778;28;20036;-77
2021/12/09 07:10:17;;;;;;;10.35;7.75;;;-6.00;92.40;;;;;;5030492;28;20017;-78
2021/12/09 07:12:43;;;;;;;12.93;7.20;;;-6.00;92.60;;;;;;5032537;28;20034;-81
2021/12/09 07:15:12;;;;;;;10.23;6.45;;;-5.90;92.60;;;;;;5032084;28;20048;-83
2021/12/09 07:17:38;;;;;;;14.63;7.70;;;-5.80;92.50;;;;;;5031391;28;20454;-77
2021/12/09 07:20:07;;;;;;;11.30;8.17;;;-5.80;92.40;;;;;;5031148;28;20372;-79
2021/12/09 07:22:33;;;;;;;14.65;7.70;;;-5.80;92.20;;;;;;5036794;28;20251;-81
2021/12/09 07:24:59;;;;;;;16.85;9.43;;;-5.80;92.20;;;;;;5009726;28;20030;-82
2021/12/09 07:27:25;;;;;;;13.27;7.82;;;-5.80;92.40;;;;;;5013092;28;20021;-78
2021/12/09 07:29:51;;;;;;;16.95;7.43;;;-5.80;92.20;;;;;;4995437;28;20033;-79
2021/12/09 07:32:17;;;;;;;13.98;7.50;;;-5.80;92.30;;;;;;5012572;28;20060;-80
2021/12/09 07:34:43;;;;;;;16.63;7.93;;;-5.70;92.50;;;;;;5012707;28;20018;-79
2021/12/09 07:37:09;;;;;;;19.17;8.13;;;-5.70;92.50;;;;;;5013130;28;20034;-79
2021/12/09 07:39:35;;;;;;;11.93;7.32;;;-5.60;92.50;;;;;;5013194;28;20030;-79
2021/12/09 07:42:02;;;;;;;15.40;8.45;;;-5.60;92.50;;;;;;5012786;28;20026;-78
2021/12/09 07:44:29;;;;;;;;;;;-5.50;92.20;;;;;;5013368;28;20034;-78
2021/12/09 07:46:55;;;;;;;10.45;6.07;;;-5.50;92.00;;;;;;5012592;28;19909;-79
2021/12/09 07:49:22;;;;;;;13.37;9.17;;;-5.60;92.10;;;;;;5012737;28;20480;-79
2021/12/09 07:51:49;;;;;;;12.73;7.72;;;-5.60;91.60;;;;;;5012374;28;20056;-80
2021/12/09 07:54:15;;;;;;;13.73;8.10;;;-5.80;91.30;;;;;;5013177;28;20475;-79
2021/12/09 07:56:42;;;;;;;16.63;8.10;;;-5.90;91.40;;;;;;5032579;28;20037;-80
2021/12/09 07:59:11;;;;;;;15.30;8.77;;;-6.00;91.50;;;;;;5015288;28;20362;-78
2021/12/09 08:01:40;;;;;;;15.82;9.55;;;-6.20;91.50;;;;;;5032695;28;20506;-78
2021/12/09 08:04:07;;;;;;;17.38;9.05;;;-6.40;91.60;;;;;;5014441;28;20033;-78
2021/12/09 08:06:34;;;;;;;14.68;9.70;;;-6.50;91.90;;;;;;5032495;28;20431;-80
2021/12/09 08:09:00;;;;;;;14.57;8.10;;;-6.60;92.00;;;;;;5032433;28;20031;-79
2021/12/09 08:11:26;;;;;;;25.77;11.68;;;-6.70;92.20;;;;;;5031598;28;20028;-79
2021/12/09 08:13:52;;;;;;;16.85;10.00;;;-6.70;92.30;;;;;;5032078;28;20038;-80
2021/12/09 08:16:18;;;;;;;14.27;9.15;;;-6.70;92.30;;;;;;5032009;28;20068;-79
2021/12/09 08:18:55;;;;;;;14.50;9.55;;;-6.80;92.30;;;;;;5032459;28;20101;-79
2021/12/09 08:21:25;;;;;;;;;;;-6.80;92.30;;;;;;5036951;28;20021;-79
2021/12/09 08:23:52;;;;;;;17.48;9.73;;;-6.90;92.30;;;;;;5018154;28;19991;-80
2021/12/09 08:26:19;;;;;;;12.68;8.25;;;-6.90;92.40;;;;;;5038053;28;20041;-80
2021/12/09 08:28:45;;;;;;;19.17;8.90;;;-6.90;92.50;;;;;;5020910;28;20489;-80
2021/12/09 08:31:10;;;;;;;16.05;9.60;;;-6.90;92.50;;;;;;5026664;28;20026;-79
2021/12/09 08:33:36;;;;;;;17.05;9.95;;;-6.80;92.50;;;;;;5040971;28;20029;-80
2021/12/09 08:36:03;;;;;;;14.05;9.77;;;-6.70;92.60;;;;;;5045199;28;20025;-79
2021/12/09 08:38:29;;;;;;;13.25;8.18;;;-6.60;92.80;;;;;;5051087;28;20043;-79
2021/12/09 08:40:55;;;;;;;14.98;8.65;;;-6.50;92.80;;;;;;5017761;28;20502;-79
2021/12/09 08:43:22;;;;;;;12.23;7.13;;;-6.30;92.50;;;;;;5035518;28;20490;-80
2021/12/09 08:45:50;;;;;;;12.75;7.45;;;-6.20;92.40;;;;;;5035332;28;20261;-80
2021/12/09 08:48:17;;;;;;;14.43;10.10;;;-6.00;92.40;;;;;;5035283;28;20509;-80
2021/12/09 08:50:44;;;;;;;13.57;6.33;;;-5.80;92.30;;;;;;5035660;28;20410;-79
2021/12/09 08:53:14;;;;;;;14.93;7.70;;;-5.80;91.10;;;;;;5017219;28;20349;-80
2021/12/09 08:55:40;;;;;;;12.85;8.65;;;-5.90;90.40;;;;;;5034882;28;20100;-80
2021/12/09 08:58:07;;;;;;;16.13;8.75;;;-5.90;90.70;;;;;;5035001;28;20034;-80
2021/12/09 09:00:34;;;;;;;18.00;10.93;;;-5.80;91.30;;;;;;5017086;28;20026;-80
2021/12/09 09:03:02;;;;;;;16.92;7.65;;;-5.50;91.30;;;;;;5035011;28;20029;-80
2021/12/09 09:05:29;;;;;;;15.85;9.30;;;-5.20;91.20;;;;;;5034821;28;20100;-79
2021/12/09 09:07:55;;;;;;;14.95;9.20;;;-5.00;90.20;;;;;;5035063;28;20061;-79
2021/12/09 09:10:25;;;;;;;18.52;11.57;;;-4.80;90.60;;;;;;5016506;28;20026;-81
2021/12/09 09:12:52;;;;;;;16.33;10.23;;;-4.50;89.50;;;;;;5017365;28;20109;-80
2021/12/09 09:15:20;;;;;;;20.65;11.10;;;-4.30;88.60;;;;;;5037000;28;20049;-78
2021/12/09 09:17:47;;;;;;;19.75;13.18;;;-4.00;88.70;;;;;;5019743;28;20034;-80
2021/12/09 09:20:15;;;;;;;13.23;8.88;;;-3.70;87.30;;;;;;5037340;28;20503;-80
2021/12/09 09:22:41;;;;;;;17.00;10.50;;;-3.50;86.80;;;;;;5035736;28;20033;-80
2021/12/09 09:25:11;;;;;;;17.35;9.38;;;-3.60;82.70;;;;;;5034720;28;20026;-80
2021/12/09 09:27:37;;;;;;;14.35;10.10;;;-3.70;82.20;;;;;;5034534;28;20026;-80
2021/12/09 09:30:05;;;;;;;19.23;10.38;;;-3.90;82.80;;;;;;5033950;28;20084;-79
2021/12/09 09:32:31;;;;;;;18.98;10.32;;;-4.20;83.10;;;;;;5033966;28;20379;-80
2021/12/09 09:34:57;;;;;;;12.52;8.88;;;-4.50;81.90;;;;;;5034104;28;20021;-79
2021/12/09 09:37:23;;;;;;;19.23;10.38;;;-4.70;82.90;;;;;;5034472;28;20033;-79
2021/12/09 09:39:49;;;;;;;18.67;10.65;;;-4.90;83.50;;;;;;5034410;28;20026;-81
2021/12/09 09:42:31;;;;;;;14.43;9.35;;;-4.90;84.20;;;;;;5034296;28;20025;-81
2021/12/09 09:44:57;;;;;;;14.48;10.10;;;-5.10;84.30;;;;;;5033756;28;20510;-79
2021/12/09 09:47:26;;;;;;;15.95;10.68;;;-5.30;84.70;;;;;;5035028;28;20032;-80
2021/12/09 09:49:54;;;;;;;15.38;9.10;;;-5.50;85.30;;;;;;5036228;28;20209;-81
2021/12/09 09:52:19;;;;;;;;;;;-5.60;85.70;;;;;;5034638;28;20017;-80
2021/12/09 09:54:47;;;;;;;19.83;10.75;;;-5.70;86.90;;;;;;5033872;28;20010;-79
2021/12/09 09:57:14;;;;;;;12.60;9.10;;;-5.50;86.70;;;;;;5016399;28;20112;-81
2021/12/09 09:59:40;;;;;;;17.88;10.48;;;-5.30;86.70;;;;;;5034541;28;20308;-80
2021/12/09 10:02:08;;;;;;;19.67;10.82;;;-4.90;87.90;;;;;;5034112;28;20021;-79
2021/12/09 10:04:59;;;;;;;17.38;10.90;;;-4.70;87.80;;;;;;5033949;28;20495;-79
2021/12/09 10:07:25;;;;;;;16.75;9.95;;;-4.30;84.70;;;;;;5034689;28;20013;-81
2021/12/09 10:09:53;;;;;;;17.42;12.30;;;-3.90;83.30;;;;;;5033887;28;20467;-80
2021/12/09 10:12:18;;;;;;;;;;;-3.10;80.30;;;;;;5034202;28;20034;-80
2021/12/09 10:14:53;;;;;;;11.93;8.90;;;-2.50;81.20;;;;;;5033264;28;19927;-81
2021/12/09 10:17:26;;;;;;;17.55;10.98;;;-2.10;78.50;;;;;;5034357;28;20013;-79
2021/12/09 10:19:55;;;;;;;17.30;8.77;;;-1.60;74.80;;;;;;5018552;28;20021;-80
2021/12/09 10:22:32;;;;;;;16.85;9.77;;;-1.30;74.50;;;;;;5035128;28;20448;-79
2021/12/09 10:24:59;;;;;;;;;;;-1.60;73.60;;;;;;5033599;28;20037;-79
2021/12/09 10:27:33;;;;;;;16.55;8.70;;;-1.90;74.70;;;;;;5034265;28;19913;-81
2021/12/09 10:30:11;;;;;;;13.18;8.82;;;-2.40;74.10;;;;;;5035010;28;20036;-81
2021/12/09 10:32:37;;;;;;;14.68;9.80;;;-2.90;74.70;;;;;;5034072;28;20081;-79
2021/12/09 10:35:29;;;;;;;12.52;8.02;;;-3.30;73.50;;;;;;5041291;28;20305;-81
2021/12/09 10:37:55;;;;;;;14.38;8.40;;;-3.70;75.20;;;;;;5029597;28;20452;-80
2021/12/09 10:40:30;;;;;;;15.60;7.22;;;-4.10;75.90;;;;;;5033318;28;20060;-82
2021/12/09 10:42:58;;;;;;;12.30;7.80;;;-4.30;77.10;;;;;;5033060;28;20438;-79
2021/12/09 10:45:36;;;;;;;10.20;6.63;;;-4.50;77.40;;;;;;5033198;28;20048;-80
2021/12/09 10:55:52;;;;;;;16.10;10.15;;;-5.20;80.80;;;;;;5032734;28;20030;-79
2021/12/09 10:58:31;;;;;;;18.40;8.73;;;-5.30;81.20;;;;;;5032871;28;20059;-79
2021/12/09 11:01:10;;;;;;;16.75;9.43;;;-5.40;81.70;;;;;;5032636;28;20147;-80
2021/12/09 11:03:42;;;;;;;13.10;6.90;;;-5.50;82.30;;;;;;5032627;28;20036;-80
2021/12/09 11:06:17;;;;;;;12.80;8.57;;;-5.60;82.90;;;;;;5015755;28;20022;-78
2021/12/09 11:08:49;;;;;;;19.25;10.50;;;-5.70;83.80;;;;;;5029438;28;20131;-78
2021/12/09 11:11:32;;;;;;;14.48;8.95;;;-5.80;83.90;;;;;;5033007;28;20055;-80
2021/12/09 11:14:00;;;;;;;17.88;8.52;;;-5.80;84.20;;;;;;5032739;28;20033;-79
2021/12/09 11:16:34;;;;;;;17.23;9.90;;;-5.90;84.20;;;;;;5032726;28;20025;-79
2021/12/09 11:19:39;;;;;;;12.48;9.45;;;-5.90;84.80;;;;;;5032517;28;20434;-78
2021/12/09 11:22:14;;;;;;;16.17;9.40;;;-5.90;85.50;;;;;;5032954;28;20025;-80
2021/12/09 11:24:48;;;;;;;13.18;9.35;;;-5.90;86.10;;;;;;5032679;28;20498;-80
2021/12/09 11:27:22;;;;;;;19.52;10.18;;;-5.90;86.30;;;;;;5032753;28;20029;-81
2021/12/09 11:29:53;;;;;;;13.90;8.45;;;-5.90;86.20;;;;;;5032550;28;20060;-79
2021/12/09 11:32:52;;;;;;;17.08;7.35;;;-5.90;85.80;;;;;;5033604;28;20081;-79
2021/12/09 11:35:28;;;;;;;13.35;7.88;;;-5.90;86.80;;;;;;5032354;28;20037;-80
2021/12/09 11:40:47;;;;;;;12.38;8.75;;;-6.10;86.50;;;;;;5032461;28;20025;-79
2021/12/09 11:43:19;;;;;;;;;;;-6.20;87.30;;;;;;5015370;28;20471;-79
2021/12/09 11:45:47;;;;;;;8.93;5.22;;;-6.20;87.20;;;;;;5032682;28;20341;-80
2021/12/09 11:48:15;;;;;;;14.15;9.32;;;-6.20;87.10;;;;;;5032894;28;20081;-79
2021/12/09 11:50:44;;;;;;;17.15;9.10;;;-6.20;88.10;;;;;;5032565;28;20028;-80
2021/12/09 11:53:14;;;;;;;9.30;5.75;;;-6.30;88.90;;;;;;5032561;28;20025;-81
2021/12/09 11:55:45;;;;;;;13.95;8.00;;;-6.30;89.30;;;;;;5036431;28;20022;-80
2021/12/09 12:23:56;;;;;;;15.82;8.50;;;-6.40;90.10;;;;;;5038769;28;20557;-80
2021/12/09 12:33:01;;;;;;;12.65;7.45;;;-6.50;90.30;;;;;;4955562;29;20051;-79
2021/12/09 12:41:14;;;;;;;13.40;7.07;;;-6.50;90.40;;;;;;5035476;28;20044;-78
2021/12/09 12:43:54;;;;;;;15.85;7.80;;;-6.60;90.40;;;;;;5035419;28;20041;-79
2021/12/09 12:46:48;;;;;;;13.32;6.80;;;-6.60;90.40;;;;;;5035190;28;20040;-80
2021/12/09 12:49:33;;;;;;;16.10;7.55;;;-6.60;90.50;;;;;;5035378;28;20475;-80
2021/12/09 12:52:13;;;;;;;11.63;6.88;;;-6.60;90.40;;;;;;5035449;28;20041;-80
2021/12/09 12:54:55;;;;;;;12.32;7.45;;;-6.60;90.40;;;;;;5035366;28;20076;-80
2021/12/09 12:57:34;;;;;;;12.73;6.95;;;-6.70;90.40;;;;;;5035006;28;20029;-80
2021/12/09 13:00:12;;;;;;;17.25;8.13;;;-6.70;90.40;;;;;;5017846;28;20430;-80
2021/12/09 13:05:29;;;;;;;18.15;7.80;;;-6.70;90.50;;;;;;5033945;28;20124;-81
2021/12/09 13:16:02;;;;;;;10.20;6.20;;;-6.80;90.70;;;;;;5035839;28;20050;-81
2021/12/09 13:18:46;;;;;;;19.92;10.20;;;-6.80;90.60;;;;;;5035233;28;20036;-80
2021/12/09 13:21:36;;;;;;;13.88;7.80;;;-6.80;90.50;;;;;;5034602;28;20028;-80
2021/12/09 13:24:21;;;;;;;17.48;7.95;;;-6.80;90.30;;;;;;5016728;28;20502;-80
2021/12/09 13:27:05;;;;;;;11.45;7.10;;;-6.80;90.30;;;;;;5034665;28;20021;-80
2021/12/09 13:29:43;;;;;;;13.23;6.90;;;-6.90;90.20;;;;;;5034356;28;20386;-80
2021/12/09 13:35:55;;;;;;;18.02;8.48;;;-6.90;90.20;;;;;;4954332;29;20098;-80
2021/12/09 13:49:59;;;;;;;21.98;8.40;;;-7.10;90.60;;;;;;5035233;28;20021;-80
2021/12/09 13:55:22;;;;;;;11.20;7.43;;;-7.20;90.60;;;;;;5034573;28;20032;-80
2021/12/09 13:57:47;;;;;;;11.07;6.28;;;-7.10;90.40;;;;;;5034304;28;20025;-80
2021/12/09 14:00:25;;;;;;;10.57;7.22;;;-7.20;90.40;;;;;;5016155;28;20029;-80
2021/12/09 14:02:57;;;;;;;15.77;8.38;;;-7.10;90.40;;;;;;5033846;28;20040;-80